sensor_id;sensor_type;location;lat;lon;timestamp;P1;durP1;ratioP1;P2;durP2;ratioP2
11614;SDS011;5863;52.832;4.758;2023-05-29T00:00:21;11.10;;;2.95;;
11614;SDS011;5863;52.832;4.758;2023-05-29T00:02:50;10.48;;;2.47;;
11614;SDS011;5863;52.832;4.758;2023-05-29T00:05:17;11.38;;;2.55;;
11614;SDS011;5863;52.832;4.758;2023-05-29T00:07:44;10.32;;;2.35;;
11614;SDS011;5863;52.832;4.758;2023-05-29T00:10:11;11.32;;;2.80;;
11614;SDS011;5863;52.832;4.758;2023-05-29T00:12:38;10.43;;;2.47;;
11614;SDS011;5863;52.832;4.758;2023-05-29T00:15:05;13.15;;;2.65;;
11614;SDS011;5863;52.832;4.758;2023-05-29T00:17:33;8.95;;;2.45;;
11614;SDS011;5863;52.832;4.758;2023-05-29T00:20:02;8.68;;;2.60;;
11614;SDS011;5863;52.832;4.758;2023-05-29T00:22:31;14.80;;;2.30;;
11614;SDS011;5863;52.832;4.758;2023-05-29T00:24:58;12.85;;;2.55;;
11614;SDS011;5863;52.832;4.758;2023-05-29T00:27:25;8.45;;;2.80;;
11614;SDS011;5863;52.832;4.758;2023-05-29T00:29:51;12.10;;;2.95;;
11614;SDS011;5863;52.832;4.758;2023-05-29T00:32:18;10.85;;;2.53;;
11614;SDS011;5863;52.832;4.758;2023-05-29T00:34:45;12.50;;;2.40;;
11614;SDS011;5863;52.832;4.758;2023-05-29T00:37:13;8.05;;;2.20;;
11614;SDS011;5863;52.832;4.758;2023-05-29T00:39:39;10.45;;;2.25;;
11614;SDS011;5863;52.832;4.758;2023-05-29T00:42:06;14.13;;;2.40;;
11614;SDS011;5863;52.832;4.758;2023-05-29T00:44:33;9.98;;;2.42;;
11614;SDS011;5863;52.832;4.758;2023-05-29T00:47:00;7.97;;;2.53;;
11614;SDS011;5863;52.832;4.758;2023-05-29T00:49:27;6.65;;;1.92;;
11614;SDS011;5863;52.832;4.758;2023-05-29T00:51:54;8.15;;;2.20;;
11614;SDS011;5863;52.832;4.758;2023-05-29T00:54:25;9.38;;;2.40;;
11614;SDS011;5863;52.832;4.758;2023-05-29T00:56:53;9.02;;;2.28;;
11614;SDS011;5863;52.832;4.758;2023-05-29T00:59:21;11.60;;;2.17;;
11614;SDS011;5863;52.832;4.758;2023-05-29T01:01:48;12.27;;;2.35;;
11614;SDS011;5863;52.832;4.758;2023-05-29T01:04:15;6.50;;;2.08;;
11614;SDS011;5863;52.832;4.758;2023-05-29T01:06:43;10.23;;;2.33;;
11614;SDS011;5863;52.832;4.758;2023-05-29T01:09:12;12.98;;;2.63;;
11614;SDS011;5863;52.832;4.758;2023-05-29T01:11:44;11.25;;;2.28;;
11614;SDS011;5863;52.832;4.758;2023-05-29T01:14:17;7.93;;;2.53;;
11614;SDS011;5863;52.832;4.758;2023-05-29T01:16:51;8.57;;;2.40;;
11614;SDS011;5863;52.832;4.758;2023-05-29T01:19:30;8.65;;;2.38;;
11614;SDS011;5863;52.832;4.758;2023-05-29T01:22:12;8.55;;;1.83;;
11614;SDS011;5863;52.832;4.758;2023-05-29T01:24:45;11.68;;;2.63;;
11614;SDS011;5863;52.832;4.758;2023-05-29T01:27:17;10.55;;;2.92;;
11614;SDS011;5863;52.832;4.758;2023-05-29T01:29:45;7.55;;;2.10;;
11614;SDS011;5863;52.832;4.758;2023-05-29T01:32:14;6.97;;;2.17;;
11614;SDS011;5863;52.832;4.758;2023-05-29T01:34:41;9.15;;;2.22;;
11614;SDS011;5863;52.832;4.758;2023-05-29T01:37:07;6.93;;;2.10;;
11614;SDS011;5863;52.832;4.758;2023-05-29T01:39:35;10.23;;;2.42;;
11614;SDS011;5863;52.832;4.758;2023-05-29T01:42:02;9.52;;;2.67;;
11614;SDS011;5863;52.832;4.758;2023-05-29T01:44:31;12.13;;;2.53;;
11614;SDS011;5863;52.832;4.758;2023-05-29T01:46:59;11.63;;;2.75;;
11614;SDS011;5863;52.832;4.758;2023-05-29T01:49:26;13.10;;;2.42;;
11614;SDS011;5863;52.832;4.758;2023-05-29T01:51:54;10.27;;;2.47;;
11614;SDS011;5863;52.832;4.758;2023-05-29T01:54:21;8.20;;;2.03;;
11614;SDS011;5863;52.832;4.758;2023-05-29T01:56:48;10.73;;;2.42;;
11614;SDS011;5863;52.832;4.758;2023-05-29T01:59:16;9.05;;;2.33;;
11614;SDS011;5863;52.832;4.758;2023-05-29T02:01:45;13.50;;;2.40;;
11614;SDS011;5863;52.832;4.758;2023-05-29T02:04:13;8.55;;;2.20;;
11614;SDS011;5863;52.832;4.758;2023-05-29T02:06:40;11.30;;;2.53;;
11614;SDS011;5863;52.832;4.758;2023-05-29T02:09:07;14.50;;;2.75;;
11614;SDS011;5863;52.832;4.758;2023-05-29T02:11:33;12.90;;;2.58;;
11614;SDS011;5863;52.832;4.758;2023-05-29T02:14:00;7.95;;;2.20;;
11614;SDS011;5863;52.832;4.758;2023-05-29T02:16:28;7.05;;;2.47;;
11614;SDS011;5863;52.832;4.758;2023-05-29T02:18:59;13.73;;;2.80;;
11614;SDS011;5863;52.832;4.758;2023-05-29T02:21:26;9.63;;;2.80;;
11614;SDS011;5863;52.832;4.758;2023-05-29T02:23:53;17.52;;;2.90;;
11614;SDS011;5863;52.832;4.758;2023-05-29T02:26:20;8.43;;;2.28;;
11614;SDS011;5863;52.832;4.758;2023-05-29T02:28:47;13.07;;;2.88;;
11614;SDS011;5863;52.832;4.758;2023-05-29T02:31:14;7.15;;;2.22;;
11614;SDS011;5863;52.832;4.758;2023-05-29T02:33:41;10.10;;;2.28;;
11614;SDS011;5863;52.832;4.758;2023-05-29T02:36:09;11.07;;;2.50;;
11614;SDS011;5863;52.832;4.758;2023-05-29T02:38:36;8.80;;;2.40;;
11614;SDS011;5863;52.832;4.758;2023-05-29T02:41:03;13.85;;;2.38;;
11614;SDS011;5863;52.832;4.758;2023-05-29T02:43:30;11.10;;;2.67;;
11614;SDS011;5863;52.832;4.758;2023-05-29T02:45:57;10.38;;;2.60;;
11614;SDS011;5863;52.832;4.758;2023-05-29T02:48:24;9.90;;;2.47;;
11614;SDS011;5863;52.832;4.758;2023-05-29T02:50:51;14.18;;;2.60;;
11614;SDS011;5863;52.832;4.758;2023-05-29T02:53:19;17.00;;;2.50;;
11614;SDS011;5863;52.832;4.758;2023-05-29T02:55:46;11.10;;;2.25;;
11614;SDS011;5863;52.832;4.758;2023-05-29T02:58:13;9.50;;;2.13;;
11614;SDS011;5863;52.832;4.758;2023-05-29T03:00:41;13.20;;;2.85;;
11614;SDS011;5863;52.832;4.758;2023-05-29T03:03:08;11.07;;;2.35;;
11614;SDS011;5863;52.832;4.758;2023-05-29T03:05:34;10.82;;;2.65;;
11614;SDS011;5863;52.832;4.758;2023-05-29T03:08:01;12.07;;;2.53;;
11614;SDS011;5863;52.832;4.758;2023-05-29T03:10:29;9.07;;;1.90;;
11614;SDS011;5863;52.832;4.758;2023-05-29T03:12:56;8.93;;;2.40;;
11614;SDS011;5863;52.832;4.758;2023-05-29T03:15:22;8.88;;;2.67;;
11614;SDS011;5863;52.832;4.758;2023-05-29T03:17:49;10.23;;;2.50;;
11614;SDS011;5863;52.832;4.758;2023-05-29T03:20:16;13.43;;;2.47;;
11614;SDS011;5863;52.832;4.758;2023-05-29T03:22:43;10.57;;;2.40;;
11614;SDS011;5863;52.832;4.758;2023-05-29T03:25:10;9.88;;;2.10;;
11614;SDS011;5863;52.832;4.758;2023-05-29T03:27:38;10.90;;;2.33;;
11614;SDS011;5863;52.832;4.758;2023-05-29T03:30:05;9.98;;;2.03;;
11614;SDS011;5863;52.832;4.758;2023-05-29T03:32:33;7.32;;;2.28;;
11614;SDS011;5863;52.832;4.758;2023-05-29T03:35:00;10.05;;;2.65;;
11614;SDS011;5863;52.832;4.758;2023-05-29T03:37:27;9.02;;;2.20;;
11614;SDS011;5863;52.832;4.758;2023-05-29T03:39:53;11.10;;;2.25;;
11614;SDS011;5863;52.832;4.758;2023-05-29T03:42:20;8.52;;;2.30;;
11614;SDS011;5863;52.832;4.758;2023-05-29T03:44:48;8.23;;;2.47;;
11614;SDS011;5863;52.832;4.758;2023-05-29T03:47:14;9.13;;;2.75;;
11614;SDS011;5863;52.832;4.758;2023-05-29T03:49:41;11.10;;;2.67;;
11614;SDS011;5863;52.832;4.758;2023-05-29T03:52:08;9.30;;;2.05;;
11614;SDS011;5863;52.832;4.758;2023-05-29T03:54:35;7.57;;;2.10;;
11614;SDS011;5863;52.832;4.758;2023-05-29T03:57:01;10.88;;;2.45;;
11614;SDS011;5863;52.832;4.758;2023-05-29T03:59:28;9.48;;;2.35;;
11614;SDS011;5863;52.832;4.758;2023-05-29T04:01:56;8.23;;;2.63;;
11614;SDS011;5863;52.832;4.758;2023-05-29T04:04:23;9.82;;;2.10;;
11614;SDS011;5863;52.832;4.758;2023-05-29T04:06:49;11.50;;;2.75;;
11614;SDS011;5863;52.832;4.758;2023-05-29T04:09:16;9.80;;;2.28;;
11614;SDS011;5863;52.832;4.758;2023-05-29T04:11:43;10.20;;;2.55;;
11614;SDS011;5863;52.832;4.758;2023-05-29T04:14:11;12.13;;;2.70;;
11614;SDS011;5863;52.832;4.758;2023-05-29T04:16:37;13.52;;;2.60;;
11614;SDS011;5863;52.832;4.758;2023-05-29T04:19:05;8.50;;;2.10;;
11614;SDS011;5863;52.832;4.758;2023-05-29T04:21:32;13.85;;;2.70;;
11614;SDS011;5863;52.832;4.758;2023-05-29T04:23:59;7.18;;;2.05;;
11614;SDS011;5863;52.832;4.758;2023-05-29T04:26:26;8.15;;;2.35;;
11614;SDS011;5863;52.832;4.758;2023-05-29T04:28:53;9.52;;;2.63;;
11614;SDS011;5863;52.832;4.758;2023-05-29T04:31:22;8.80;;;2.25;;
11614;SDS011;5863;52.832;4.758;2023-05-29T04:33:50;8.05;;;2.25;;
11614;SDS011;5863;52.832;4.758;2023-05-29T04:36:20;12.18;;;2.42;;
11614;SDS011;5863;52.832;4.758;2023-05-29T04:38:50;10.93;;;2.63;;
11614;SDS011;5863;52.832;4.758;2023-05-29T04:41:17;13.57;;;2.78;;
11614;SDS011;5863;52.832;4.758;2023-05-29T04:43:44;8.70;;;2.20;;
11614;SDS011;5863;52.832;4.758;2023-05-29T04:46:11;11.85;;;2.90;;
11614;SDS011;5863;52.832;4.758;2023-05-29T04:48:40;10.45;;;2.53;;
11614;SDS011;5863;52.832;4.758;2023-05-29T04:51:07;9.18;;;2.35;;
11614;SDS011;5863;52.832;4.758;2023-05-29T04:53:37;9.95;;;2.42;;
11614;SDS011;5863;52.832;4.758;2023-05-29T04:56:04;10.45;;;2.80;;
11614;SDS011;5863;52.832;4.758;2023-05-29T04:58:31;9.90;;;2.22;;
11614;SDS011;5863;52.832;4.758;2023-05-29T05:00:57;8.18;;;2.40;;
11614;SDS011;5863;52.832;4.758;2023-05-29T05:03:24;8.90;;;2.25;;
11614;SDS011;5863;52.832;4.758;2023-05-29T05:05:51;6.32;;;2.25;;
11614;SDS011;5863;52.832;4.758;2023-05-29T05:08:18;10.52;;;2.50;;
11614;SDS011;5863;52.832;4.758;2023-05-29T05:10:46;12.13;;;2.63;;
11614;SDS011;5863;52.832;4.758;2023-05-29T05:13:13;12.35;;;2.70;;
11614;SDS011;5863;52.832;4.758;2023-05-29T05:15:39;14.77;;;3.17;;
11614;SDS011;5863;52.832;4.758;2023-05-29T05:18:06;15.18;;;2.63;;
11614;SDS011;5863;52.832;4.758;2023-05-29T05:20:33;12.05;;;2.65;;
11614;SDS011;5863;52.832;4.758;2023-05-29T05:23:00;9.70;;;2.53;;
11614;SDS011;5863;52.832;4.758;2023-05-29T05:25:26;8.25;;;2.33;;
11614;SDS011;5863;52.832;4.758;2023-05-29T05:27:54;12.65;;;2.47;;
11614;SDS011;5863;52.832;4.758;2023-05-29T05:30:21;10.13;;;2.47;;
11614;SDS011;5863;52.832;4.758;2023-05-29T05:32:47;6.95;;;2.55;;
11614;SDS011;5863;52.832;4.758;2023-05-29T05:35:14;10.63;;;2.70;;
11614;SDS011;5863;52.832;4.758;2023-05-29T05:37:41;9.75;;;2.15;;
11614;SDS011;5863;52.832;4.758;2023-05-29T05:40:08;7.85;;;2.25;;
11614;SDS011;5863;52.832;4.758;2023-05-29T05:42:36;9.93;;;2.30;;
11614;SDS011;5863;52.832;4.758;2023-05-29T05:45:05;12.93;;;2.30;;
11614;SDS011;5863;52.832;4.758;2023-05-29T05:47:32;14.93;;;3.03;;
11614;SDS011;5863;52.832;4.758;2023-05-29T05:49:59;9.75;;;2.47;;
11614;SDS011;5863;52.832;4.758;2023-05-29T05:52:26;9.52;;;2.10;;
11614;SDS011;5863;52.832;4.758;2023-05-29T05:54:56;12.13;;;2.60;;
11614;SDS011;5863;52.832;4.758;2023-05-29T05:57:23;12.85;;;2.67;;
11614;SDS011;5863;52.832;4.758;2023-05-29T05:59:50;9.13;;;2.60;;
11614;SDS011;5863;52.832;4.758;2023-05-29T06:02:18;8.18;;;2.17;;
11614;SDS011;5863;52.832;4.758;2023-05-29T06:04:45;7.63;;;2.33;;
11614;SDS011;5863;52.832;4.758;2023-05-29T06:07:12;9.90;;;2.75;;
11614;SDS011;5863;52.832;4.758;2023-05-29T06:09:38;8.05;;;2.40;;
11614;SDS011;5863;52.832;4.758;2023-05-29T06:12:05;8.60;;;2.33;;
11614;SDS011;5863;52.832;4.758;2023-05-29T06:14:33;7.90;;;2.58;;
11614;SDS011;5863;52.832;4.758;2023-05-29T06:17:00;6.55;;;1.90;;
11614;SDS011;5863;52.832;4.758;2023-05-29T06:19:28;9.05;;;2.15;;
11614;SDS011;5863;52.832;4.758;2023-05-29T06:21:54;4.70;;;1.80;;
11614;SDS011;5863;52.832;4.758;2023-05-29T06:24:21;5.38;;;2.20;;
11614;SDS011;5863;52.832;4.758;2023-05-29T06:26:48;15.13;;;2.45;;
11614;SDS011;5863;52.832;4.758;2023-05-29T06:29:15;7.65;;;2.38;;
11614;SDS011;5863;52.832;4.758;2023-05-29T06:31:41;7.88;;;2.35;;
11614;SDS011;5863;52.832;4.758;2023-05-29T06:34:08;11.93;;;2.38;;
11614;SDS011;5863;52.832;4.758;2023-05-29T06:36:36;8.80;;;2.35;;
11614;SDS011;5863;52.832;4.758;2023-05-29T06:39:03;10.63;;;2.50;;
11614;SDS011;5863;52.832;4.758;2023-05-29T06:41:30;8.27;;;2.00;;
11614;SDS011;5863;52.832;4.758;2023-05-29T06:43:56;10.43;;;2.35;;
11614;SDS011;5863;52.832;4.758;2023-05-29T06:46:24;6.35;;;1.92;;
11614;SDS011;5863;52.832;4.758;2023-05-29T06:48:51;11.50;;;2.50;;
11614;SDS011;5863;52.832;4.758;2023-05-29T06:51:17;9.60;;;2.20;;
11614;SDS011;5863;52.832;4.758;2023-05-29T06:53:45;11.02;;;2.30;;
11614;SDS011;5863;52.832;4.758;2023-05-29T06:56:12;14.93;;;2.72;;
11614;SDS011;5863;52.832;4.758;2023-05-29T06:58:39;10.32;;;2.60;;
11614;SDS011;5863;52.832;4.758;2023-05-29T07:01:05;7.07;;;2.35;;
11614;SDS011;5863;52.832;4.758;2023-05-29T07:03:32;11.07;;;2.70;;
11614;SDS011;5863;52.832;4.758;2023-05-29T07:06:00;7.35;;;2.47;;
11614;SDS011;5863;52.832;4.758;2023-05-29T07:08:27;11.32;;;2.40;;
11614;SDS011;5863;52.832;4.758;2023-05-29T07:10:55;8.93;;;2.28;;
11614;SDS011;5863;52.832;4.758;2023-05-29T07:13:21;9.10;;;2.33;;
11614;SDS011;5863;52.832;4.758;2023-05-29T07:15:50;13.50;;;2.33;;
11614;SDS011;5863;52.832;4.758;2023-05-29T07:18:17;10.23;;;3.13;;
11614;SDS011;5863;52.832;4.758;2023-05-29T07:20:44;8.52;;;2.40;;
11614;SDS011;5863;52.832;4.758;2023-05-29T07:23:11;6.88;;;2.00;;
11614;SDS011;5863;52.832;4.758;2023-05-29T07:25:37;9.88;;;2.20;;
11614;SDS011;5863;52.832;4.758;2023-05-29T07:28:05;7.45;;;2.20;;
11614;SDS011;5863;52.832;4.758;2023-05-29T07:30:32;7.68;;;2.55;;
11614;SDS011;5863;52.832;4.758;2023-05-29T07:32:59;6.43;;;2.20;;
11614;SDS011;5863;52.832;4.758;2023-05-29T07:35:25;7.32;;;2.13;;
11614;SDS011;5863;52.832;4.758;2023-05-29T07:37:52;10.27;;;2.47;;
11614;SDS011;5863;52.832;4.758;2023-05-29T07:40:19;8.63;;;2.42;;
11614;SDS011;5863;52.832;4.758;2023-05-29T07:42:46;5.95;;;1.90;;
11614;SDS011;5863;52.832;4.758;2023-05-29T07:45:14;8.65;;;2.63;;
11614;SDS011;5863;52.832;4.758;2023-05-29T07:47:41;9.32;;;2.58;;
11614;SDS011;5863;52.832;4.758;2023-05-29T07:50:08;7.82;;;2.42;;
11614;SDS011;5863;52.832;4.758;2023-05-29T07:52:35;12.75;;;2.70;;
11614;SDS011;5863;52.832;4.758;2023-05-29T07:55:02;8.77;;;2.50;;
11614;SDS011;5863;52.832;4.758;2023-05-29T07:57:29;8.70;;;2.60;;
11614;SDS011;5863;52.832;4.758;2023-05-29T07:59:56;6.68;;;2.55;;
11614;SDS011;5863;52.832;4.758;2023-05-29T08:02:25;8.73;;;2.83;;
11614;SDS011;5863;52.832;4.758;2023-05-29T08:04:51;10.15;;;2.50;;
11614;SDS011;5863;52.832;4.758;2023-05-29T08:07:18;8.15;;;2.53;;
11614;SDS011;5863;52.832;4.758;2023-05-29T08:09:45;10.70;;;2.60;;
11614;SDS011;5863;52.832;4.758;2023-05-29T08:12:11;12.00;;;2.90;;
11614;SDS011;5863;52.832;4.758;2023-05-29T08:14:38;10.15;;;3.00;;
11614;SDS011;5863;52.832;4.758;2023-05-29T08:17:05;9.70;;;2.42;;
11614;SDS011;5863;52.832;4.758;2023-05-29T08:19:33;10.10;;;3.22;;
11614;SDS011;5863;52.832;4.758;2023-05-29T08:22:00;10.00;;;2.80;;
11614;SDS011;5863;52.832;4.758;2023-05-29T08:24:27;10.68;;;2.47;;
11614;SDS011;5863;52.832;4.758;2023-05-29T08:26:53;9.27;;;3.10;;
11614;SDS011;5863;52.832;4.758;2023-05-29T08:29:20;9.27;;;2.53;;
11614;SDS011;5863;52.832;4.758;2023-05-29T08:31:47;10.65;;;3.03;;
11614;SDS011;5863;52.832;4.758;2023-05-29T08:34:13;15.98;;;3.67;;
11614;SDS011;5863;52.832;4.758;2023-05-29T08:36:41;11.68;;;3.10;;
11614;SDS011;5863;52.832;4.758;2023-05-29T08:39:10;11.50;;;2.90;;
11614;SDS011;5863;52.832;4.758;2023-05-29T08:41:38;14.35;;;3.15;;
11614;SDS011;5863;52.832;4.758;2023-05-29T08:44:13;11.68;;;3.03;;
11614;SDS011;5863;52.832;4.758;2023-05-29T08:46:40;10.32;;;2.88;;
11614;SDS011;5863;52.832;4.758;2023-05-29T08:49:07;14.68;;;3.20;;
11614;SDS011;5863;52.832;4.758;2023-05-29T08:51:36;9.60;;;2.80;;
11614;SDS011;5863;52.832;4.758;2023-05-29T08:54:09;9.65;;;3.65;;
11614;SDS011;5863;52.832;4.758;2023-05-29T08:56:37;11.60;;;3.45;;
11614;SDS011;5863;52.832;4.758;2023-05-29T08:59:04;15.93;;;3.28;;
11614;SDS011;5863;52.832;4.758;2023-05-29T09:01:33;11.13;;;3.15;;
11614;SDS011;5863;52.832;4.758;2023-05-29T09:04:01;9.88;;;3.10;;
11614;SDS011;5863;52.832;4.758;2023-05-29T09:06:28;9.40;;;2.97;;
11614;SDS011;5863;52.832;4.758;2023-05-29T09:08:55;10.27;;;2.80;;
11614;SDS011;5863;52.832;4.758;2023-05-29T09:11:24;11.75;;;3.25;;
11614;SDS011;5863;52.832;4.758;2023-05-29T09:13:51;13.45;;;3.22;;
11614;SDS011;5863;52.832;4.758;2023-05-29T09:16:18;14.48;;;3.00;;
11614;SDS011;5863;52.832;4.758;2023-05-29T09:18:45;8.00;;;2.88;;
11614;SDS011;5863;52.832;4.758;2023-05-29T09:21:17;12.95;;;3.40;;
11614;SDS011;5863;52.832;4.758;2023-05-29T09:23:52;10.18;;;2.92;;
11614;SDS011;5863;52.832;4.758;2023-05-29T09:26:21;17.88;;;3.72;;
11614;SDS011;5863;52.832;4.758;2023-05-29T09:28:50;9.23;;;2.90;;
11614;SDS011;5863;52.832;4.758;2023-05-29T09:31:17;11.82;;;2.97;;
11614;SDS011;5863;52.832;4.758;2023-05-29T09:33:48;8.70;;;2.65;;
11614;SDS011;5863;52.832;4.758;2023-05-29T09:36:19;11.48;;;3.28;;
11614;SDS011;5863;52.832;4.758;2023-05-29T09:38:48;10.25;;;2.92;;
11614;SDS011;5863;52.832;4.758;2023-05-29T09:41:19;12.45;;;3.63;;
11614;SDS011;5863;52.832;4.758;2023-05-29T09:43:47;11.82;;;3.10;;
11614;SDS011;5863;52.832;4.758;2023-05-29T09:46:16;11.70;;;2.90;;
11614;SDS011;5863;52.832;4.758;2023-05-29T09:48:43;15.00;;;3.30;;
11614;SDS011;5863;52.832;4.758;2023-05-29T09:51:18;10.38;;;2.95;;
11614;SDS011;5863;52.832;4.758;2023-05-29T09:53:47;9.48;;;2.72;;
11614;SDS011;5863;52.832;4.758;2023-05-29T09:56:15;10.80;;;3.33;;
11614;SDS011;5863;52.832;4.758;2023-05-29T09:58:44;11.45;;;3.30;;
11614;SDS011;5863;52.832;4.758;2023-05-29T10:01:13;10.30;;;2.85;;
11614;SDS011;5863;52.832;4.758;2023-05-29T10:03:41;10.45;;;2.95;;
11614;SDS011;5863;52.832;4.758;2023-05-29T10:06:08;13.00;;;3.58;;
11614;SDS011;5863;52.832;4.758;2023-05-29T10:08:39;11.73;;;2.90;;
11614;SDS011;5863;52.832;4.758;2023-05-29T10:11:12;11.00;;;3.10;;
11614;SDS011;5863;52.832;4.758;2023-05-29T10:13:41;11.32;;;2.90;;
11614;SDS011;5863;52.832;4.758;2023-05-29T10:16:15;12.77;;;3.20;;
11614;SDS011;5863;52.832;4.758;2023-05-29T10:18:47;9.25;;;2.90;;
11614;SDS011;5863;52.832;4.758;2023-05-29T10:21:19;11.02;;;3.15;;
11614;SDS011;5863;52.832;4.758;2023-05-29T10:23:49;16.58;;;3.35;;
11614;SDS011;5863;52.832;4.758;2023-05-29T10:26:18;11.80;;;3.60;;
11614;SDS011;5863;52.832;4.758;2023-05-29T10:28:49;11.98;;;3.58;;
11614;SDS011;5863;52.832;4.758;2023-05-29T10:31:24;11.48;;;3.67;;
11614;SDS011;5863;52.832;4.758;2023-05-29T10:34:01;14.43;;;3.55;;
11614;SDS011;5863;52.832;4.758;2023-05-29T10:36:35;10.95;;;3.50;;
11614;SDS011;5863;52.832;4.758;2023-05-29T10:39:08;11.43;;;3.55;;
11614;SDS011;5863;52.832;4.758;2023-05-29T10:41:35;8.63;;;2.47;;
11614;SDS011;5863;52.832;4.758;2023-05-29T10:44:37;11.57;;;3.10;;
11614;SDS011;5863;52.832;4.758;2023-05-29T10:47:06;9.55;;;2.92;;
11614;SDS011;5863;52.832;4.758;2023-05-29T10:49:34;12.05;;;3.45;;
11614;SDS011;5863;52.832;4.758;2023-05-29T10:52:00;11.73;;;3.45;;
11614;SDS011;5863;52.832;4.758;2023-05-29T10:54:30;10.40;;;3.22;;
11614;SDS011;5863;52.832;4.758;2023-05-29T10:57:07;11.55;;;2.80;;
11614;SDS011;5863;52.832;4.758;2023-05-29T10:59:35;13.48;;;2.92;;
11614;SDS011;5863;52.832;4.758;2023-05-29T11:02:02;17.40;;;3.40;;
11614;SDS011;5863;52.832;4.758;2023-05-29T11:04:32;9.52;;;3.00;;
11614;SDS011;5863;52.832;4.758;2023-05-29T11:06:59;15.27;;;3.85;;
11614;SDS011;5863;52.832;4.758;2023-05-29T11:09:29;19.65;;;4.32;;
11614;SDS011;5863;52.832;4.758;2023-05-29T11:12:10;11.70;;;3.42;;
11614;SDS011;5863;52.832;4.758;2023-05-29T11:14:44;10.02;;;3.03;;
11614;SDS011;5863;52.832;4.758;2023-05-29T11:20:00;11.93;;;3.20;;
11614;SDS011;5863;52.832;4.758;2023-05-29T11:22:37;9.63;;;2.83;;
11614;SDS011;5863;52.832;4.758;2023-05-29T11:25:20;15.82;;;3.50;;
11614;SDS011;5863;52.832;4.758;2023-05-29T11:27:47;13.15;;;3.45;;
11614;SDS011;5863;52.832;4.758;2023-05-29T11:30:15;11.45;;;3.17;;
11614;SDS011;5863;52.832;4.758;2023-05-29T11:32:42;14.38;;;3.33;;
11614;SDS011;5863;52.832;4.758;2023-05-29T11:35:13;10.93;;;3.13;;
11614;SDS011;5863;52.832;4.758;2023-05-29T11:37:40;13.15;;;3.35;;
11614;SDS011;5863;52.832;4.758;2023-05-29T11:40:09;15.73;;;3.55;;
11614;SDS011;5863;52.832;4.758;2023-05-29T11:42:37;15.13;;;3.58;;
11614;SDS011;5863;52.832;4.758;2023-05-29T11:45:11;8.32;;;3.13;;
11614;SDS011;5863;52.832;4.758;2023-05-29T11:47:51;11.02;;;3.15;;
11614;SDS011;5863;52.832;4.758;2023-05-29T11:50:20;14.18;;;3.33;;
11614;SDS011;5863;52.832;4.758;2023-05-29T11:52:48;14.00;;;3.42;;
11614;SDS011;5863;52.832;4.758;2023-05-29T11:55:16;11.27;;;3.30;;
11614;SDS011;5863;52.832;4.758;2023-05-29T11:57:43;14.73;;;3.63;;
11614;SDS011;5863;52.832;4.758;2023-05-29T12:00:12;10.77;;;2.78;;
11614;SDS011;5863;52.832;4.758;2023-05-29T12:02:40;11.30;;;2.80;;
11614;SDS011;5863;52.832;4.758;2023-05-29T12:05:08;15.15;;;4.05;;
11614;SDS011;5863;52.832;4.758;2023-05-29T12:07:46;13.68;;;2.72;;
11614;SDS011;5863;52.832;4.758;2023-05-29T12:10:15;13.30;;;3.78;;
11614;SDS011;5863;52.832;4.758;2023-05-29T12:12:42;12.52;;;3.40;;
11614;SDS011;5863;52.832;4.758;2023-05-29T12:15:13;9.90;;;3.20;;
11614;SDS011;5863;52.832;4.758;2023-05-29T12:17:40;10.98;;;3.05;;
11614;SDS011;5863;52.832;4.758;2023-05-29T12:20:08;13.73;;;2.90;;
11614;SDS011;5863;52.832;4.758;2023-05-29T12:22:36;10.68;;;3.03;;
11614;SDS011;5863;52.832;4.758;2023-05-29T12:25:07;12.57;;;3.22;;
11614;SDS011;5863;52.832;4.758;2023-05-29T12:27:36;12.52;;;2.92;;
11614;SDS011;5863;52.832;4.758;2023-05-29T12:30:07;10.82;;;2.88;;
11614;SDS011;5863;52.832;4.758;2023-05-29T12:32:35;15.57;;;3.33;;
11614;SDS011;5863;52.832;4.758;2023-05-29T12:35:12;14.88;;;3.63;;
11614;SDS011;5863;52.832;4.758;2023-05-29T12:37:44;18.02;;;2.72;;
11614;SDS011;5863;52.832;4.758;2023-05-29T12:40:17;13.55;;;2.67;;
11614;SDS011;5863;52.832;4.758;2023-05-29T12:42:45;19.05;;;3.20;;
11614;SDS011;5863;52.832;4.758;2023-05-29T12:45:13;8.50;;;2.55;;
11614;SDS011;5863;52.832;4.758;2023-05-29T12:47:49;16.42;;;3.60;;
11614;SDS011;5863;52.832;4.758;2023-05-29T12:50:20;13.18;;;2.90;;
11614;SDS011;5863;52.832;4.758;2023-05-29T12:52:54;12.00;;;2.95;;
11614;SDS011;5863;52.832;4.758;2023-05-29T12:55:22;10.15;;;2.35;;
11614;SDS011;5863;52.832;4.758;2023-05-29T12:57:49;10.98;;;3.22;;
11614;SDS011;5863;52.832;4.758;2023-05-29T13:00:16;9.90;;;2.78;;
11614;SDS011;5863;52.832;4.758;2023-05-29T13:02:44;11.90;;;3.42;;
11614;SDS011;5863;52.832;4.758;2023-05-29T13:05:11;10.80;;;2.78;;
11614;SDS011;5863;52.832;4.758;2023-05-29T13:07:37;15.95;;;2.80;;
11614;SDS011;5863;52.832;4.758;2023-05-29T13:10:05;11.90;;;3.22;;
11614;SDS011;5863;52.832;4.758;2023-05-29T13:12:33;10.75;;;3.03;;
11614;SDS011;5863;52.832;4.758;2023-05-29T13:15:00;11.50;;;3.03;;
11614;SDS011;5863;52.832;4.758;2023-05-29T13:17:27;14.65;;;3.22;;
11614;SDS011;5863;52.832;4.758;2023-05-29T13:19:53;14.27;;;3.15;;
11614;SDS011;5863;52.832;4.758;2023-05-29T13:22:20;10.45;;;2.75;;
11614;SDS011;5863;52.832;4.758;2023-05-29T13:24:47;13.25;;;2.85;;
11614;SDS011;5863;52.832;4.758;2023-05-29T13:27:14;11.52;;;2.78;;
11614;SDS011;5863;52.832;4.758;2023-05-29T13:29:42;17.45;;;2.92;;
11614;SDS011;5863;52.832;4.758;2023-05-29T13:32:09;11.68;;;2.60;;
11614;SDS011;5863;52.832;4.758;2023-05-29T13:34:36;15.25;;;3.00;;
11614;SDS011;5863;52.832;4.758;2023-05-29T13:37:03;10.60;;;2.78;;
11614;SDS011;5863;52.832;4.758;2023-05-29T13:39:30;14.77;;;2.83;;
11614;SDS011;5863;52.832;4.758;2023-05-29T13:41:56;12.73;;;3.53;;
11614;SDS011;5863;52.832;4.758;2023-05-29T13:44:23;8.35;;;2.80;;
11614;SDS011;5863;52.832;4.758;2023-05-29T13:46:51;10.63;;;2.92;;
11614;SDS011;5863;52.832;4.758;2023-05-29T13:49:18;8.25;;;2.53;;
11614;SDS011;5863;52.832;4.758;2023-05-29T13:51:45;7.75;;;2.72;;
11614;SDS011;5863;52.832;4.758;2023-05-29T13:54:13;11.45;;;2.70;;
11614;SDS011;5863;52.832;4.758;2023-05-29T13:56:41;12.30;;;2.60;;
11614;SDS011;5863;52.832;4.758;2023-05-29T13:59:08;14.60;;;2.88;;
11614;SDS011;5863;52.832;4.758;2023-05-29T14:01:35;12.85;;;2.97;;
11614;SDS011;5863;52.832;4.758;2023-05-29T14:04:04;8.60;;;2.47;;
11614;SDS011;5863;52.832;4.758;2023-05-29T14:06:31;14.70;;;3.10;;
11614;SDS011;5863;52.832;4.758;2023-05-29T14:08:58;13.60;;;3.13;;
11614;SDS011;5863;52.832;4.758;2023-05-29T14:11:26;8.68;;;2.53;;
11614;SDS011;5863;52.832;4.758;2023-05-29T14:13:53;11.68;;;3.17;;
11614;SDS011;5863;52.832;4.758;2023-05-29T14:16:19;11.40;;;2.92;;
11614;SDS011;5863;52.832;4.758;2023-05-29T14:18:46;8.38;;;2.58;;
11614;SDS011;5863;52.832;4.758;2023-05-29T14:21:16;11.88;;;2.90;;
11614;SDS011;5863;52.832;4.758;2023-05-29T14:23:44;8.98;;;3.05;;
11614;SDS011;5863;52.832;4.758;2023-05-29T14:26:11;10.88;;;3.13;;
11614;SDS011;5863;52.832;4.758;2023-05-29T14:28:38;11.35;;;3.08;;
11614;SDS011;5863;52.832;4.758;2023-05-29T14:31:05;9.23;;;2.90;;
11614;SDS011;5863;52.832;4.758;2023-05-29T14:33:31;10.90;;;3.13;;
11614;SDS011;5863;52.832;4.758;2023-05-29T14:35:58;9.43;;;2.80;;
11614;SDS011;5863;52.832;4.758;2023-05-29T14:38:26;9.85;;;3.50;;
11614;SDS011;5863;52.832;4.758;2023-05-29T14:40:53;10.30;;;2.80;;
11614;SDS011;5863;52.832;4.758;2023-05-29T14:43:20;9.60;;;2.90;;
11614;SDS011;5863;52.832;4.758;2023-05-29T14:45:46;12.98;;;3.10;;
11614;SDS011;5863;52.832;4.758;2023-05-29T14:48:13;11.77;;;2.83;;
11614;SDS011;5863;52.832;4.758;2023-05-29T14:50:41;13.38;;;2.67;;
11614;SDS011;5863;52.832;4.758;2023-05-29T14:53:08;15.82;;;3.47;;
11614;SDS011;5863;52.832;4.758;2023-05-29T14:55:36;13.95;;;3.45;;
11614;SDS011;5863;52.832;4.758;2023-05-29T14:58:02;12.35;;;2.97;;
11614;SDS011;5863;52.832;4.758;2023-05-29T15:00:29;12.43;;;2.90;;